Time;durP1;ratioP1;P1;durP2;ratioP2;P2;SDS_P1;SDS_P2;PMS_P1;PMS_P2;Temp;Humidity;BMP_temperature;BMP_pressure;BME280_temperature;BME280_humidity;BME280_pressure;Samples;Min_cycle;Max_cycle;Signal;HPM_P1;HPM_P2
2021/08/12 06:11:43;;;;;;;40.25;30.67;;;17.80;99.90;;;;;;2611946;54;20827;-76
2021/08/12 06:14:11;;;;;;;41.47;29.40;;;17.90;99.90;;;;;;2614172;38;20457;-72
2021/08/12 06:16:37;;;;;;;42.47;30.75;;;17.80;99.90;;;;;;2614368;54;20030;-73
2021/08/12 06:19:03;;;;;;;37.67;30.50;;;17.90;99.90;;;;;;2612896;49;20029;-74
2021/08/12 06:21:29;;;;;;;35.47;28.52;;;17.90;99.90;;;;;;2610620;46;20573;-73
2021/08/12 06:23:54;;;;;;;31.20;27.58;;;17.90;99.90;;;;;;2613852;54;20042;-73
2021/08/12 06:26:20;;;;;;;40.30;28.30;;;17.90;99.90;;;;;;2614892;46;20104;-73
2021/08/12 06:28:46;;;;;;;33.75;27.20;;;18.10;99.90;;;;;;2614435;46;20125;-74
2021/08/12 06:31:13;;;;;;;30.92;25.75;;;18.20;99.90;;;;;;2614372;46;20121;-73
2021/08/12 06:33:39;;;;;;;32.25;25.13;;;18.20;99.90;;;;;;2614980;46;20220;-75
2021/08/12 06:36:04;;;;;;;34.90;25.60;;;18.30;99.90;;;;;;2614969;46;20034;-74
2021/08/12 06:38:31;;;;;;;35.17;24.58;;;18.60;99.90;;;;;;2614620;54;20053;-72
2021/08/12 06:40:57;;;;;;;35.15;25.13;;;18.60;99.90;;;;;;2614319;46;20621;-73
2021/08/12 06:43:23;;;;;;;29.33;24.17;;;18.80;99.90;;;;;;2614862;54;20558;-72
2021/08/12 06:45:48;;;;;;;25.33;22.55;;;18.90;99.90;;;;;;2614678;54;20165;-71
2021/08/12 06:48:14;;;;;;;24.65;21.52;;;19.10;99.90;;;;;;2614788;46;20042;-73
2021/08/12 06:50:40;;;;;;;26.17;21.65;;;19.20;99.90;;;;;;2614188;38;20506;-72
2021/08/12 06:53:05;;;;;;;26.67;21.38;;;19.10;99.90;;;;;;2615346;38;20189;-72
2021/08/12 06:55:35;;;;;;;23.30;20.48;;;19.20;99.90;;;;;;2614594;54;20047;-72
2021/08/12 06:58:01;;;;;;;23.67;20.92;;;19.40;99.90;;;;;;2614368;46;20054;-72
2021/08/12 07:00:27;;;;;;;25.20;20.88;;;19.40;99.90;;;;;;2614615;54;20034;-74
2021/08/12 07:02:54;;;;;;;29.33;22.35;;;19.60;99.90;;;;;;2615059;54;20572;-73
2021/08/12 07:05:20;;;;;;;28.02;23.13;;;19.80;99.90;;;;;;2613926;46;20079;-74
2021/08/12 07:07:45;;;;;;;26.85;22.52;;;19.50;99.90;;;;;;2613744;46;20570;-72
2021/08/12 07:10:12;;;;;;;22.33;18.27;;;19.60;99.90;;;;;;2614901;46;20038;-72
2021/08/12 07:12:39;;;;;;;25.48;21.52;;;20.00;99.90;;;;;;2615067;46;20065;-73
2021/08/12 07:15:07;;;;;;;27.52;22.00;;;19.80;99.90;;;;;;2615761;46;20038;-73
2021/08/12 07:17:35;;;;;;;26.70;22.02;;;19.90;99.90;;;;;;2615158;46;20177;-72
2021/08/12 07:20:02;;;;;;;30.38;22.88;;;19.90;99.90;;;;;;2614448;46;20074;-73
2021/08/12 07:22:28;;;;;;;25.75;21.13;;;19.90;99.90;;;;;;2611683;46;20043;-73
2021/08/12 07:24:54;;;;;;;26.23;21.52;;;20.00;99.90;;;;;;2610928;46;20161;-73
2021/08/12 07:27:19;;;;;;;28.55;22.45;;;19.90;99.90;;;;;;2611193;39;20533;-72
2021/08/12 07:29:46;;;;;;;26.73;23.25;;;20.20;99.90;;;;;;2611207;47;20546;-71
2021/08/12 07:32:12;;;;;;;34.03;21.40;;;20.10;99.90;;;;;;2610906;54;20255;-73
2021/08/12 07:34:38;;;;;;;25.17;20.80;;;20.40;99.90;;;;;;2610893;46;20483;-72
2021/08/12 07:37:04;;;;;;;25.50;21.25;;;20.30;99.90;;;;;;2612126;46;20049;-72
2021/08/12 07:39:30;;;;;;;25.13;21.33;;;20.40;99.90;;;;;;2613101;47;20041;-73
2021/08/12 07:41:55;;;;;;;23.40;19.80;;;20.50;99.90;;;;;;2611603;46;20565;-73
2021/08/12 07:44:21;;;;;;;24.27;20.05;;;20.40;99.90;;;;;;2610604;54;21197;-73
2021/08/12 07:46:47;;;;;;;26.45;20.42;;;20.50;99.90;;;;;;2611042;54;20601;-72
2021/08/12 07:49:12;;;;;;;24.35;20.67;;;20.40;99.90;;;;;;2611092;54;20154;-73
2021/08/12 07:51:38;;;;;;;25.52;20.80;;;20.30;99.90;;;;;;2610590;47;20042;-71
2021/08/12 07:54:04;;;;;;;29.73;20.75;;;20.30;99.90;;;;;;2610499;47;20034;-73
2021/08/12 07:56:30;;;;;;;30.50;21.02;;;20.20;99.90;;;;;;2611531;46;20038;-73
2021/08/12 07:58:56;;;;;;;26.13;22.02;;;20.10;99.90;;;;;;2611499;47;20042;-72
2021/08/12 08:01:22;;;;;;;23.88;19.42;;;20.00;99.90;;;;;;2610289;46;20038;-72
2021/08/12 08:03:48;;;;;;;27.52;19.40;;;20.10;99.90;;;;;;2607787;54;20644;-72
2021/08/12 08:06:14;;;;;;;24.92;20.42;;;20.40;99.90;;;;;;2610181;46;20593;-72
2021/08/12 08:08:40;;;;;;;23.40;19.77;;;20.50;99.90;;;;;;2610861;54;20042;-71
2021/08/12 08:11:05;;;;;;;24.20;17.90;;;20.60;99.90;;;;;;2609253;54;20140;-72
2021/08/12 08:13:31;;;;;;;22.58;20.17;;;20.80;99.90;;;;;;2610596;54;20038;-74
2021/08/12 08:15:59;;;;;;;23.95;17.63;;;21.00;99.90;;;;;;2611332;46;20157;-73
2021/08/12 08:18:26;;;;;;;23.65;19.70;;;21.30;99.90;;;;;;2609939;54;20597;-73
2021/08/12 08:20:51;;;;;;;24.67;20.88;;;21.00;99.90;;;;;;2611050;47;20043;-72
2021/08/12 08:23:17;;;;;;;29.08;20.23;;;20.90;99.90;;;;;;2610328;54;20557;-73
2021/08/12 08:25:43;;;;;;;21.83;19.38;;;20.90;99.90;;;;;;2610888;39;20409;-73
2021/08/12 08:28:09;;;;;;;26.08;20.35;;;20.90;99.90;;;;;;2610320;54;20574;-74
2021/08/12 08:30:36;;;;;;;20.50;15.88;;;20.90;99.90;;;;;;2611955;39;20567;-74
2021/08/12 08:33:03;;;;;;;23.95;18.55;;;21.80;99.90;;;;;;2610032;54;20074;-74
2021/08/12 08:35:29;;;;;;;25.55;18.75;;;21.60;99.90;;;;;;2609815;47;20054;-74
2021/08/12 08:37:56;;;;;;;27.02;18.13;;;21.80;99.90;;;;;;2611040;54;20028;-73
2021/08/12 08:40:23;;;;;;;21.75;18.17;;;21.40;99.90;;;;;;2611232;54;20029;-73
2021/08/12 08:42:49;;;;;;;26.02;19.08;;;21.50;99.90;;;;;;2610558;54;21395;-75
2021/08/12 08:45:20;;;;;;;22.63;15.38;;;21.40;99.90;;;;;;2610896;31;20598;-75
2021/08/12 08:47:46;;;;;;;19.05;13.77;;;22.00;99.90;;;;;;2611029;54;20035;-74
2021/08/12 08:50:17;;;;;;;22.50;17.63;;;22.50;99.90;;;;;;2611087;46;20054;-74
2021/08/12 08:52:43;;;;;;;24.95;18.60;;;22.80;99.90;;;;;;2611309;47;20134;-75
2021/08/12 08:55:09;;;;;;;20.63;17.63;;;22.40;99.90;;;;;;2611213;47;20030;-76
2021/08/12 08:57:36;;;;;;;20.38;16.52;;;22.40;99.90;;;;;;2611597;46;20077;-74
2021/08/12 09:00:03;;;;;;;25.10;19.13;;;22.00;99.90;;;;;;2610915;46;20134;-72
2021/08/12 09:02:28;;;;;;;29.15;20.42;;;22.30;99.90;;;;;;2609436;47;20673;-73
2021/08/12 09:04:54;;;;;;;26.63;21.00;;;22.40;99.90;;;;;;2611010;46;20061;-74
2021/08/12 09:07:20;;;;;;;28.10;21.15;;;22.40;99.90;;;;;;2611393;47;20040;-76
2021/08/12 09:09:46;;;;;;;23.50;19.33;;;22.30;99.90;;;;;;2610925;54;20634;-77
2021/08/12 09:12:12;;;;;;;24.55;18.27;;;22.60;99.90;;;;;;2610928;54;20030;-77
2021/08/12 09:14:40;;;;;;;21.00;17.38;;;22.50;99.90;;;;;;2610765;47;20031;-75
2021/08/12 09:17:21;;;;;;;20.08;17.52;;;23.00;99.90;;;;;;2611489;47;20058;-78
2021/08/12 09:20:00;;;;;;;21.13;17.05;;;23.10;99.90;;;;;;2610928;54;20031;-76
2021/08/12 09:22:30;;;;;;;20.00;15.85;;;22.90;99.90;;;;;;2611427;47;20045;-77
2021/08/12 09:24:56;;;;;;;18.80;14.93;;;23.00;99.90;;;;;;2611341;46;20067;-74
2021/08/12 09:27:25;;;;;;;16.45;14.75;;;24.30;99.90;;;;;;2610423;54;20027;-75
2021/08/12 09:30:09;;;;;;;16.45;13.25;;;24.50;99.90;;;;;;2610366;54;20061;-76
2021/08/12 09:32:48;;;;;;;17.35;12.88;;;24.60;99.90;;;;;;2610602;46;20046;-74
2021/08/12 09:35:26;;;;;;;16.67;12.73;;;24.30;99.90;;;;;;2610369;54;20039;-80
2021/08/12 09:37:52;;;;;;;13.52;11.40;;;23.70;99.90;;;;;;2611221;54;20022;-75
2021/08/12 09:40:25;;;;;;;15.45;12.15;;;24.30;99.90;;;;;;2610789;47;20040;-74
2021/08/12 09:43:00;;;;;;;13.32;11.00;;;23.50;99.90;;;;;;2610992;47;20049;-76
2021/08/12 09:45:29;;;;;;;14.45;11.68;;;24.30;99.90;;;;;;2609402;46;20054;-76
2021/08/12 09:47:55;;;;;;;16.67;12.57;;;25.10;99.90;;;;;;2610462;54;20042;-75
2021/08/12 09:50:31;;;;;;;18.48;12.82;;;24.30;99.90;;;;;;2610119;47;20147;-76
2021/08/12 09:52:57;;;;;;;16.63;13.13;;;24.60;99.90;;;;;;2611162;39;20449;-75
2021/08/12 09:55:24;;;;;;;16.25;12.70;;;24.20;99.90;;;;;;2609837;47;20913;-74
2021/08/12 09:57:54;;;;;;;18.33;12.60;;;24.40;99.90;;;;;;2610826;46;20065;-79
2021/08/12 10:00:25;;;;;;;13.45;9.90;;;24.60;99.90;;;;;;2611374;54;20761;-77
2021/08/12 10:02:52;;;;;;;11.57;8.98;;;24.20;99.90;;;;;;2611012;47;20569;-77
2021/08/12 10:05:18;;;;;;;13.80;9.68;;;24.80;99.90;;;;;;2609958;54;20162;-77
2021/08/12 10:07:46;;;;;;;9.63;8.63;;;25.70;99.90;;;;;;2610299;47;20042;-77
2021/08/12 10:10:19;;;;;;;8.30;6.75;;;24.10;99.90;;;;;;2611110;47;20133;-79
2021/08/12 10:12:52;;;;;;;11.00;7.28;;;23.90;99.90;;;;;;2610716;54;20037;-78
2021/08/12 10:15:25;;;;;;;9.23;7.63;;;23.60;99.90;;;;;;2611453;39;20449;-78
2021/08/12 10:17:55;;;;;;;15.77;10.93;;;23.60;99.90;;;;;;2611352;54;20149;-78
2021/08/12 10:20:27;;;;;;;11.65;6.20;;;24.80;99.90;;;;;;2609509;54;20882;-78
2021/08/12 10:22:55;;;;;;;12.15;7.13;;;24.50;99.90;;;;;;2611529;47;20049;-78
2021/08/12 10:25:23;;;;;;;11.10;5.95;;;25.20;99.90;;;;;;2611030;47;20037;-77
2021/08/12 10:27:54;;;;;;;10.38;6.60;;;25.90;99.90;;;;;;2610742;46;20052;-79
2021/08/12 10:30:22;;;;;;;8.18;6.18;;;25.70;99.90;;;;;;2610794;47;20035;-78
2021/08/12 10:32:57;;;;;;;11.30;6.47;;;25.20;99.90;;;;;;2610321;47;20035;-77
2021/08/12 10:35:24;;;;;;;9.02;5.85;;;25.90;99.90;;;;;;2610427;54;20047;-76
2021/08/12 10:37:53;;;;;;;9.80;5.70;;;25.50;99.90;;;;;;2609558;46;20046;-72
2021/08/12 10:40:21;;;;;;;7.30;5.35;;;26.20;99.90;;;;;;2611598;54;20034;-76
2021/08/12 10:42:48;;;;;;;10.55;5.05;;;26.60;99.90;;;;;;2612073;47;20127;-75
2021/08/12 10:45:18;;;;;;;12.63;6.03;;;25.60;99.90;;;;;;2612507;54;20026;-75
2021/08/12 10:47:54;;;;;;;8.40;5.53;;;25.40;99.90;;;;;;2612068;54;20474;-76
2021/08/12 10:50:26;;;;;;;8.77;5.15;;;26.30;99.90;;;;;;2609606;47;20547;-76
2021/08/12 10:53:07;;;;;;;8.75;4.60;;;25.60;99.90;;;;;;2610958;47;20562;-77
2021/08/12 10:55:54;;;;;;;8.13;5.40;;;26.60;99.90;;;;;;2610291;47;20108;-77
2021/08/12 10:58:23;;;;;;;8.52;4.60;;;27.00;99.90;;;;;;2611636;47;20034;-78
2021/08/12 11:00:56;;;;;;;6.45;5.25;;;27.50;99.90;;;;;;2611724;46;20054;-76
2021/08/12 11:03:34;;;;;;;7.95;4.95;;;26.80;99.90;;;;;;2612003;47;20579;-76
2021/08/12 11:06:09;;;;;;;6.20;4.13;;;27.10;99.90;;;;;;2610823;47;20529;-75
2021/08/12 11:08:50;;;;;;;7.25;5.47;;;27.00;99.90;;;;;;2612084;46;20043;-75
2021/08/12 11:11:16;;;;;;;8.85;6.60;;;26.00;99.90;;;;;;2611353;54;20029;-75
2021/08/12 11:13:42;;;;;;;8.23;5.72;;;25.40;99.90;;;;;;2610700;46;20082;-74
2021/08/12 11:16:09;;;;;;;8.48;6.15;;;25.50;99.90;;;;;;2611415;46;20022;-73
2021/08/12 11:18:54;;;;;;;8.10;5.10;;;24.80;99.90;;;;;;2611389;46;20046;-74
2021/08/12 11:21:32;;;;;;;5.30;4.40;;;25.90;99.90;;;;;;2611677;46;20158;-73
2021/08/12 11:24:09;;;;;;;8.27;6.40;;;26.70;99.90;;;;;;2612486;39;20431;-74
2021/08/12 11:26:41;;;;;;;6.30;5.50;;;25.30;99.90;;;;;;2611368;46;20042;-75
2021/08/12 11:29:29;;;;;;;7.47;4.85;;;25.00;99.90;;;;;;2611739;46;20073;-74
2021/08/12 11:32:04;;;;;;;6.97;4.35;;;24.90;99.90;;;;;;2611733;47;20561;-75
2021/08/12 11:34:52;;;;;;;7.75;5.15;;;25.60;99.90;;;;;;2610789;54;20022;-74
2021/08/12 11:37:28;;;;;;;6.60;5.20;;;25.50;99.90;;;;;;2610763;54;20035;-75
2021/08/12 11:39:57;;;;;;;8.82;5.30;;;25.70;99.90;;;;;;2611876;46;20057;-75
2021/08/12 11:42:33;;;;;;;7.28;4.25;;;24.30;99.90;;;;;;2611391;54;20034;-75
2021/08/12 11:45:02;;;;;;;6.40;4.22;;;24.40;99.90;;;;;;2611502;46;20035;-75
2021/08/12 11:47:28;;;;;;;9.13;4.40;;;25.80;99.90;;;;;;2611482;39;20227;-75
2021/08/12 11:49:56;;;;;;;9.00;4.65;;;25.20;99.90;;;;;;2610612;54;20162;-76
2021/08/12 11:52:29;;;;;;;10.98;5.05;;;26.80;99.90;;;;;;2611723;46;20161;-74
2021/08/12 11:55:13;;;;;;;11.35;4.40;;;25.80;99.90;;;;;;2611477;47;20078;-74
2021/08/12 11:57:39;;;;;;;7.82;4.82;;;26.10;99.90;;;;;;2612519;47;20030;-75
2021/08/12 12:00:08;;;;;;;12.25;4.32;;;26.40;99.90;;;;;;2612038;54;20029;-73
2021/08/12 12:02:33;;;;;;;10.55;5.28;;;25.40;99.90;;;;;;2611488;47;20562;-74
2021/08/12 12:04:59;;;;;;;8.25;3.88;;;25.50;99.90;;;;;;2611002;39;20407;-76
2021/08/12 12:07:40;;;;;;;10.32;3.95;;;25.90;99.90;;;;;;2610792;47;20042;-77
2021/08/12 12:10:06;;;;;;;7.90;4.10;;;27.00;99.90;;;;;;2611945;47;20042;-81
2021/08/12 12:12:32;;;;;;;6.38;3.80;;;26.20;99.90;;;;;;2611531;47;20125;-79
2021/08/12 12:14:58;;;;;;;6.80;3.72;;;25.60;99.90;;;;;;2611494;54;20031;-79
2021/08/12 12:17:23;;;;;;;7.43;4.25;;;24.90;99.90;;;;;;2610678;47;20061;-79
2021/08/12 12:20:13;;;;;;;7.45;4.45;;;24.30;99.90;;;;;;2611152;46;20146;-77
2021/08/12 12:22:42;;;;;;;6.90;3.58;;;24.20;99.90;;;;;;2611132;54;20117;-77
2021/08/12 12:25:11;;;;;;;6.07;3.13;;;24.90;99.90;;;;;;2610009;39;20439;-78
2021/08/12 12:27:37;;;;;;;4.70;3.10;;;25.70;99.90;;;;;;2608022;54;20055;-76
2021/08/12 12:30:13;;;;;;;4.45;3.25;;;24.60;99.90;;;;;;2610532;46;20042;-78
2021/08/12 12:32:41;;;;;;;8.15;3.33;;;24.10;99.90;;;;;;2610938;54;20037;-78
2021/08/12 12:35:08;;;;;;;7.25;3.45;;;24.70;99.90;;;;;;2610733;46;20034;-77
2021/08/12 12:37:36;;;;;;;4.75;2.90;;;25.30;99.90;;;;;;2611274;54;20129;-77
2021/08/12 12:40:04;;;;;;;7.53;4.10;;;24.60;99.90;;;;;;2611848;47;20038;-77
2021/08/12 12:42:32;;;;;;;6.28;3.00;;;24.10;99.90;;;;;;2611370;54;20030;-76
2021/08/12 12:45:06;;;;;;;3.75;2.40;;;23.90;99.90;;;;;;2610891;46;20042;-77
2021/08/12 12:47:34;;;;;;;6.47;3.40;;;25.60;99.90;;;;;;2611426;47;20034;-76
2021/08/12 12:50:15;;;;;;;5.65;2.72;;;25.10;99.90;;;;;;2606405;46;20050;-77
2021/08/12 12:53:01;;;;;;;6.50;3.88;;;24.80;99.90;;;;;;2610160;39;20613;-78
2021/08/12 12:55:42;;;;;;;5.38;3.50;;;24.90;99.90;;;;;;2610714;39;20530;-77
2021/08/12 12:58:18;;;;;;;6.45;2.97;;;24.60;99.90;;;;;;2610910;54;20042;-78
2021/08/12 13:00:55;;;;;;;5.43;3.25;;;25.30;99.90;;;;;;2611685;39;20438;-78
2021/08/12 13:03:28;;;;;;;5.45;3.05;;;25.00;99.90;;;;;;2610657;47;20606;-76
2021/08/12 13:05:58;;;;;;;4.80;2.80;;;24.00;99.90;;;;;;2611166;47;20030;-76
2021/08/12 13:08:24;;;;;;;8.38;3.22;;;24.00;99.90;;;;;;2610871;46;20050;-78
2021/08/12 13:11:16;;;;;;;7.35;3.30;;;24.80;99.90;;;;;;2611388;46;20066;-78
2021/08/12 13:13:45;;;;;;;6.82;3.90;;;24.40;99.90;;;;;;2610466;46;20042;-77
2021/08/12 13:16:13;;;;;;;5.55;2.83;;;24.40;99.90;;;;;;2611239;54;20022;-78
2021/08/12 13:18:59;;;;;;;8.77;3.42;;;24.60;99.90;;;;;;2609960;47;20031;-83
2021/08/12 13:21:30;;;;;;;5.22;3.08;;;24.60;99.90;;;;;;2611627;54;20133;-87
2021/08/12 13:23:59;;;;;;;5.03;2.72;;;24.90;99.90;;;;;;2611888;47;20702;-87
2021/08/12 13:26:34;;;;;;;6.38;3.22;;;24.80;99.90;;;;;;2611704;54;20126;-76
2021/08/12 13:29:26;;;;;;;5.57;2.58;;;24.70;99.90;;;;;;2611204;47;20038;-80
2021/08/12 13:32:01;;;;;;;6.03;3.00;;;25.10;99.90;;;;;;2610286;54;20105;-77
2021/08/12 13:34:27;;;;;;;7.35;3.10;;;24.20;99.90;;;;;;2610334;47;20523;-79
2021/08/12 13:36:52;;;;;;;6.95;3.95;;;24.10;99.90;;;;;;2611192;54;20034;-78
2021/08/12 13:39:20;;;;;;;4.95;3.13;;;24.10;99.90;;;;;;2609538;47;20050;-80
2021/08/12 13:41:59;;;;;;;7.18;3.30;;;23.90;99.90;;;;;;2610388;47;20591;-78
2021/08/12 13:44:27;;;;;;;6.68;3.15;;;23.70;99.90;;;;;;2610417;39;20417;-79
2021/08/12 13:46:54;;;;;;;4.78;2.80;;;23.60;99.90;;;;;;2610088;47;20126;-80
2021/08/12 13:49:21;;;;;;;3.92;2.63;;;23.60;99.90;;;;;;2610345;54;20078;-79
2021/08/12 13:51:48;;;;;;;8.65;3.33;;;24.20;99.90;;;;;;2610449;54;20037;-79
2021/08/12 13:54:13;;;;;;;10.82;3.50;;;24.00;99.90;;;;;;2610835;47;20049;-78
2021/08/12 13:56:39;;;;;;;5.88;2.70;;;23.50;99.90;;;;;;2611816;47;20031;-77
2021/08/12 13:59:05;;;;;;;4.90;2.50;;;23.30;99.90;;;;;;2611813;47;20059;-81
2021/08/12 14:01:31;;;;;;;5.15;2.35;;;24.50;99.90;;;;;;2611855;39;20116;-79
2021/08/12 14:03:58;;;;;;;5.15;3.45;;;24.80;99.90;;;;;;2610856;54;20030;-79
2021/08/12 14:06:24;;;;;;;4.55;2.35;;;24.00;99.90;;;;;;2611023;54;20023;-79
2021/08/12 14:08:49;;;;;;;4.90;2.75;;;25.00;99.90;;;;;;2610995;47;20041;-79
2021/08/12 14:11:16;;;;;;;5.43;2.53;;;24.90;99.90;;;;;;2611304;47;20034;-80
2021/08/12 14:13:42;;;;;;;5.72;3.20;;;24.90;99.90;;;;;;2611028;47;20034;-79
2021/08/12 14:16:08;;;;;;;4.50;3.30;;;25.30;99.90;;;;;;2611456;47;20022;-83
2021/08/12 14:18:34;;;;;;;4.70;2.42;;;25.50;99.90;;;;;;2611271;54;20027;-79
2021/08/12 14:21:00;;;;;;;5.65;3.17;;;24.50;99.90;;;;;;2613241;46;20042;-82
2021/08/12 14:23:28;;;;;;;5.28;2.42;;;24.50;99.90;;;;;;2611291;47;20655;-83
2021/08/12 14:25:54;;;;;;;4.78;3.13;;;24.70;99.90;;;;;;2611550;47;20644;-84
2021/08/12 14:28:19;;;;;;;2.65;1.80;;;24.80;99.90;;;;;;2611328;54;20030;-82
2021/08/12 14:30:45;;;;;;;4.88;2.45;;;23.50;99.90;;;;;;2611864;47;20049;-83
2021/08/12 14:33:11;;;;;;;4.40;1.85;;;23.60;99.90;;;;;;2612458;47;20049;-83
2021/08/12 14:35:36;;;;;;;4.35;1.90;;;24.60;99.90;;;;;;2612269;54;20066;-82
2021/08/12 14:38:02;;;;;;;3.47;1.90;;;24.50;99.90;;;;;;2612070;54;20050;-82
2021/08/12 14:40:28;;;;;;;3.92;1.88;;;24.40;99.90;;;;;;2612791;46;20543;-82
2021/08/12 14:42:54;;;;;;;5.28;2.10;;;25.50;99.90;;;;;;2612661;54;20031;-78
2021/08/12 14:45:20;;;;;;;4.18;1.80;;;25.20;99.90;;;;;;2612975;54;20038;-81
2021/08/12 14:47:46;;;;;;;5.75;2.10;;;25.70;99.90;;;;;;2612807;54;20023;-79
2021/08/12 14:50:11;;;;;;;6.60;2.03;;;25.40;99.90;;;;;;2612502;46;20038;-83
2021/08/12 14:52:37;;;;;;;10.00;3.05;;;24.40;99.90;;;;;;2613507;39;20506;-83
2021/08/12 14:55:04;;;;;;;6.20;2.95;;;23.80;99.90;;;;;;2612345;47;20057;-85
2021/08/12 14:57:30;;;;;;;7.88;3.30;;;24.50;99.90;;;;;;2613512;46;20042;-82
2021/08/12 14:59:56;;;;;;;11.82;3.25;;;23.90;99.90;;;;;;2618189;46;20038;-84
2021/08/12 15:02:22;;;;;;;3.97;2.13;;;24.10;99.90;;;;;;2618032;46;20026;-83
2021/08/12 15:04:47;;;;;;;7.13;2.70;;;25.00;99.90;;;;;;2615308;54;20159;-84
2021/08/12 15:07:14;;;;;;;5.65;3.20;;;25.20;99.90;;;;;;2613087;46;20589;-86
2021/08/12 15:09:39;;;;;;;8.07;2.83;;;25.40;99.90;;;;;;2612987;54;20054;-81
2021/08/12 15:12:06;;;;;;;6.75;2.53;;;25.10;99.90;;;;;;2613142;46;20050;-87
2021/08/12 15:14:33;;;;;;;3.78;2.30;;;25.80;99.90;;;;;;2612280;54;20165;-83
2021/08/12 15:17:02;;;;;;;5.82;3.10;;;23.70;99.90;;;;;;2612967;39;20416;-84
2021/08/12 15:19:27;;;;;;;5.10;2.60;;;23.60;99.90;;;;;;2611149;54;20037;-82
2021/08/12 15:21:53;;;;;;;3.97;2.60;;;24.60;99.90;;;;;;2612169;46;20034;-83
2021/08/12 15:24:21;;;;;;;5.28;3.70;;;24.30;99.90;;;;;;2612612;47;20545;-80
2021/08/12 15:26:47;;;;;;;5.15;3.25;;;24.00;99.90;;;;;;2613206;46;20070;-85
2021/08/12 15:29:12;;;;;;;6.97;3.50;;;24.60;99.90;;;;;;2616023;46;20035;-84
2021/08/12 15:31:38;;;;;;;7.15;3.78;;;24.50;99.90;;;;;;2613618;47;20066;-85
2021/08/12 15:34:04;;;;;;;5.20;2.42;;;24.10;99.90;;;;;;2613862;47;20034;-79
2021/08/12 15:36:29;;;;;;;7.60;3.28;;;23.60;99.90;;;;;;2613499;46;20041;-84
2021/08/12 15:38:55;;;;;;;6.55;2.92;;;23.60;99.90;;;;;;2611827;54;20034;-85
2021/08/12 15:41:21;;;;;;;5.78;2.83;;;24.30;99.90;;;;;;2612517;39;20136;-80
2021/08/12 15:43:46;;;;;;;5.65;3.10;;;24.30;99.90;;;;;;2611678;46;20115;-82
2021/08/12 15:46:12;;;;;;;6.60;3.65;;;23.30;99.90;;;;;;2611968;46;20102;-82
2021/08/12 15:48:38;;;;;;;6.03;3.17;;;23.10;99.90;;;;;;2610387;39;20378;-83
2021/08/12 15:51:04;;;;;;;4.38;3.10;;;23.00;99.90;;;;;;2611488;46;20157;-80
2021/08/12 15:53:29;;;;;;;7.47;3.50;;;23.10;99.90;;;;;;2611186;54;20022;-80
2021/08/12 15:55:55;;;;;;;5.03;3.28;;;23.60;99.90;;;;;;2611027;54;20030;-79
2021/08/12 15:58:21;;;;;;;9.50;4.10;;;23.30;99.90;;;;;;2611496;47;20038;-81
2021/08/12 16:00:48;;;;;;;8.40;3.30;;;23.50;99.90;;;;;;2611550;54;20042;-78
2021/08/12 16:03:14;;;;;;;8.30;3.80;;;23.90;99.90;;;;;;2612606;46;20038;-83
2021/08/12 16:05:40;;;;;;;7.50;3.38;;;24.30;99.90;;;;;;2612142;46;20042;-82
2021/08/12 16:08:06;;;;;;;12.57;3.80;;;24.40;99.90;;;;;;2611801;46;20034;-84
2021/08/12 16:10:32;;;;;;;8.50;3.42;;;24.40;99.90;;;;;;2614765;31;20508;-81
2021/08/12 16:12:58;;;;;;;7.97;4.50;;;24.90;99.90;;;;;;2613355;39;20449;-86
2021/08/12 16:15:24;;;;;;;6.18;3.28;;;24.60;99.90;;;;;;2613277;47;20047;-85
2021/08/12 16:17:55;;;;;;;6.80;3.63;;;25.10;99.90;;;;;;2618202;47;20035;-87
2021/08/12 16:20:22;;;;;;;12.03;5.17;;;25.00;99.90;;;;;;2612075;46;20086;-83
2021/08/12 16:22:48;;;;;;;9.13;5.13;;;25.10;99.90;;;;;;2612354;47;20034;-82
2021/08/12 16:25:16;;;;;;;10.00;4.38;;;24.90;99.90;;;;;;2612458;39;20320;-82
2021/08/12 16:27:42;;;;;;;8.18;4.30;;;23.90;99.90;;;;;;2612542;54;20042;-82
2021/08/12 16:30:09;;;;;;;8.35;3.92;;;24.80;99.90;;;;;;2613087;54;20022;-88
2021/08/12 16:32:35;;;;;;;9.90;5.40;;;24.90;99.90;;;;;;2613504;46;20061;-85
2021/08/12 16:35:01;;;;;;;10.98;4.50;;;24.70;99.90;;;;;;2611949;39;20451;-84
2021/08/12 16:37:26;;;;;;;7.05;4.38;;;24.90;99.90;;;;;;2611008;46;20042;-82
2021/08/12 16:39:52;;;;;;;9.52;4.75;;;24.90;99.90;;;;;;2611478;54;20558;-83
2021/08/12 16:42:18;;;;;;;12.25;4.53;;;24.80;99.90;;;;;;2611557;54;20034;-85
2021/08/12 16:44:44;;;;;;;8.45;4.70;;;24.80;99.90;;;;;;2612093;39;20435;-84
2021/08/12 16:47:09;;;;;;;10.27;4.47;;;24.70;99.90;;;;;;2612284;39;20693;-83
2021/08/12 16:49:36;;;;;;;7.47;4.95;;;24.70;99.90;;;;;;2611604;47;20559;-84
2021/08/12 16:52:02;;;;;;;11.00;4.97;;;24.30;99.90;;;;;;2611582;47;20574;-82
2021/08/12 16:54:29;;;;;;;8.27;4.30;;;24.40;99.90;;;;;;2613496;51;20030;-83
2021/08/12 16:56:54;;;;;;;8.10;3.80;;;24.50;99.90;;;;;;2619139;47;20101;-83
2021/08/12 16:59:21;;;;;;;13.20;5.60;;;24.40;99.90;;;;;;2615778;47;20023;-83
2021/08/12 17:01:47;;;;;;;11.70;5.63;;;24.50;99.90;;;;;;2611203;47;20507;-82
2021/08/12 17:04:12;;;;;;;10.30;5.57;;;24.40;99.90;;;;;;2611322;47;20054;-83
2021/08/12 17:06:38;;;;;;;9.50;5.57;;;24.40;99.90;;;;;;2611426;54;20050;-82
2021/08/12 17:09:04;;;;;;;9.25;5.97;;;24.50;99.90;;;;;;2611810;54;20046;-82
2021/08/12 17:11:30;;;;;;;9.90;5.82;;;24.30;99.90;;;;;;2610746;54;20511;-82
2021/08/12 17:13:56;;;;;;;8.98;5.85;;;24.20;99.90;;;;;;2611874;47;20042;-82
2021/08/12 17:16:21;;;;;;;8.30;5.95;;;24.30;99.90;;;;;;2611947;47;20035;-84
2021/08/12 17:18:48;;;;;;;9.32;6.28;;;24.30;99.90;;;;;;2611170;39;20539;-83
2021/08/12 17:21:15;;;;;;;12.50;6.60;;;24.20;99.90;;;;;;2611875;46;20034;-83
2021/08/12 17:23:40;;;;;;;14.55;6.60;;;24.20;99.90;;;;;;2612190;46;20245;-84
2021/08/12 17:26:09;;;;;;;13.18;8.38;;;24.00;99.90;;;;;;2611599;47;20159;-83
2021/08/12 17:28:35;;;;;;;10.70;7.22;;;23.90;99.90;;;;;;2611825;47;20055;-84
2021/08/12 17:31:00;;;;;;;12.30;7.90;;;23.40;99.90;;;;;;2611958;39;20724;-83
2021/08/12 17:33:26;;;;;;;10.52;6.32;;;23.00;99.90;;;;;;2611021;47;20672;-83
2021/08/12 17:35:52;;;;;;;24.38;8.02;;;23.20;99.90;;;;;;2611276;46;20042;-83
2021/08/12 17:38:18;;;;;;;11.75;7.13;;;23.50;99.90;;;;;;2611516;47;20055;-83
2021/08/12 17:40:44;;;;;;;10.88;7.07;;;23.20;99.90;;;;;;2612911;47;20567;-88
2021/08/12 17:43:09;;;;;;;11.90;7.72;;;23.40;99.90;;;;;;2611768;46;20050;-83
2021/08/12 17:45:36;;;;;;;10.10;7.00;;;23.40;99.90;;;;;;2612164;46;20594;-82
2021/08/12 17:48:04;;;;;;;11.88;7.25;;;23.40;99.90;;;;;;2611687;47;20042;-84
2021/08/12 17:50:29;;;;;;;10.88;7.15;;;23.40;99.90;;;;;;2611583;39;20394;-83
2021/08/12 17:52:55;;;;;;;14.90;8.13;;;23.30;99.90;;;;;;2612177;31;20542;-83
2021/08/12 17:55:21;;;;;;;13.57;8.13;;;23.40;99.90;;;;;;2611657;47;20030;-85
2021/08/12 17:57:46;;;;;;;13.80;7.47;;;23.00;99.90;;;;;;2610994;47;20075;-82
2021/08/12 18:00:12;;;;;;;12.05;8.65;;;23.20;99.90;;;;;;2611468;47;20030;-82
2021/08/12 18:02:39;;;;;;;11.93;8.50;;;23.10;99.90;;;;;;2611370;54;20042;-83
2021/08/12 18:05:08;;;;;;;13.20;7.57;;;23.00;99.90;;;;;;2611040;54;20030;-83
2021/08/12 18:07:38;;;;;;;10.68;7.18;;;23.10;99.90;;;;;;2611409;46;20514;-83
2021/08/12 18:10:08;;;;;;;10.40;7.57;;;23.10;99.90;;;;;;2611554;47;20138;-79
2021/08/12 18:12:35;;;;;;;11.85;8.18;;;23.10;99.90;;;;;;2611595;46;20065;-79
2021/08/12 18:15:01;;;;;;;11.40;8.48;;;23.00;99.90;;;;;;2612088;47;20034;-81
2021/08/12 18:17:27;;;;;;;10.20;7.25;;;22.80;99.90;;;;;;2611119;54;20546;-78
2021/08/12 18:19:53;;;;;;;10.55;8.02;;;22.90;99.90;;;;;;2610056;47;20031;-79
2021/08/12 18:22:19;;;;;;;8.52;6.63;;;22.60;99.90;;;;;;2611267;47;20030;-80
2021/08/12 18:24:46;;;;;;;9.90;6.97;;;22.50;99.90;;;;;;2611231;54;20058;-79
2021/08/12 18:27:14;;;;;;;10.23;8.48;;;22.80;99.90;;;;;;2612067;47;20034;-81
2021/08/12 18:29:41;;;;;;;11.43;9.13;;;22.80;99.90;;;;;;2611525;47;20042;-82
2021/08/12 18:32:08;;;;;;;9.68;7.95;;;22.20;99.90;;;;;;2612245;47;20077;-81
2021/08/12 18:34:34;;;;;;;8.57;7.70;;;22.40;99.90;;;;;;2611898;39;20532;-82
2021/08/12 18:37:00;;;;;;;11.57;8.65;;;22.40;99.90;;;;;;2612330;54;20023;-78
2021/08/12 18:39:26;;;;;;;10.77;7.32;;;22.40;99.90;;;;;;2612836;47;20035;-79
2021/08/12 18:41:52;;;;;;;13.63;9.93;;;22.30;99.90;;;;;;2612286;54;20030;-81
2021/08/12 18:44:17;;;;;;;12.15;8.75;;;22.20;99.90;;;;;;2612506;54;20441;-81
2021/08/12 18:46:43;;;;;;;10.07;7.72;;;22.00;99.90;;;;;;2611551;54;20022;-79
2021/08/12 18:49:10;;;;;;;9.93;7.72;;;21.90;99.90;;;;;;2611276;54;20090;-83
2021/08/12 18:51:36;;;;;;;9.75;6.88;;;21.90;99.90;;;;;;2612321;39;20450;-79
2021/08/12 18:54:02;;;;;;;8.45;6.05;;;22.00;99.90;;;;;;2612281;47;20042;-80